sensor_id;sensor_type;location;lat;lon;timestamp;P1;durP1;ratioP1;P2;durP2;ratioP2
21894;SDS011;11112;51.270;7.224;2023-04-03T00:01:07;7.55;;;4.65;;
21894;SDS011;11112;51.270;7.224;2023-04-03T00:03:35;9.43;;;4.90;;
21894;SDS011;11112;51.270;7.224;2023-04-03T00:06:03;8.05;;;4.47;;
21894;SDS011;11112;51.270;7.224;2023-04-03T00:08:35;8.57;;;4.22;;
21894;SDS011;11112;51.270;7.224;2023-04-03T00:11:03;8.60;;;4.47;;
21894;SDS011;11112;51.270;7.224;2023-04-03T00:13:32;7.47;;;4.15;;
21894;SDS011;11112;51.270;7.224;2023-04-03T00:15:59;8.02;;;4.35;;
21894;SDS011;11112;51.270;7.224;2023-04-03T00:18:26;6.20;;;4.25;;
21894;SDS011;11112;51.270;7.224;2023-04-03T00:20:54;6.55;;;4.13;;
21894;SDS011;11112;51.270;7.224;2023-04-03T00:23:21;7.07;;;4.22;;
21894;SDS011;11112;51.270;7.224;2023-04-03T00:25:50;8.75;;;4.38;;
21894;SDS011;11112;51.270;7.224;2023-04-03T00:28:19;9.88;;;4.78;;
21894;SDS011;11112;51.270;7.224;2023-04-03T00:30:48;6.25;;;4.18;;
21894;SDS011;11112;51.270;7.224;2023-04-03T00:33:16;8.38;;;4.15;;
21894;SDS011;11112;51.270;7.224;2023-04-03T00:35:46;7.22;;;4.78;;
21894;SDS011;11112;51.270;7.224;2023-04-03T00:38:14;6.68;;;4.00;;
21894;SDS011;11112;51.270;7.224;2023-04-03T00:40:43;6.43;;;4.07;;
21894;SDS011;11112;51.270;7.224;2023-04-03T00:43:14;7.72;;;4.60;;
21894;SDS011;11112;51.270;7.224;2023-04-03T00:45:44;8.73;;;4.50;;
21894;SDS011;11112;51.270;7.224;2023-04-03T00:48:13;8.55;;;4.78;;
21894;SDS011;11112;51.270;7.224;2023-04-03T00:50:46;9.40;;;4.53;;
21894;SDS011;11112;51.270;7.224;2023-04-03T00:53:14;7.68;;;4.50;;
21894;SDS011;11112;51.270;7.224;2023-04-03T00:55:48;6.88;;;4.60;;
21894;SDS011;11112;51.270;7.224;2023-04-03T00:58:19;7.32;;;4.78;;
21894;SDS011;11112;51.270;7.224;2023-04-03T01:00:54;8.00;;;4.85;;
21894;SDS011;11112;51.270;7.224;2023-04-03T01:03:24;8.90;;;4.82;;
21894;SDS011;11112;51.270;7.224;2023-04-03T01:05:52;7.35;;;4.80;;
21894;SDS011;11112;51.270;7.224;2023-04-03T01:08:22;7.15;;;4.80;;
21894;SDS011;11112;51.270;7.224;2023-04-03T01:10:50;8.20;;;4.60;;
21894;SDS011;11112;51.270;7.224;2023-04-03T01:13:20;7.53;;;4.82;;
21894;SDS011;11112;51.270;7.224;2023-04-03T01:15:51;7.35;;;4.35;;
21894;SDS011;11112;51.270;7.224;2023-04-03T01:18:18;10.52;;;5.03;;
21894;SDS011;11112;51.270;7.224;2023-04-03T01:20:55;9.13;;;5.03;;
21894;SDS011;11112;51.270;7.224;2023-04-03T01:24:00;8.20;;;4.82;;
21894;SDS011;11112;51.270;7.224;2023-04-03T01:26:38;8.40;;;5.03;;
21894;SDS011;11112;51.270;7.224;2023-04-03T01:29:07;8.38;;;4.80;;
21894;SDS011;11112;51.270;7.224;2023-04-03T01:31:51;7.20;;;4.82;;
21894;SDS011;11112;51.270;7.224;2023-04-03T01:34:19;8.38;;;4.80;;
21894;SDS011;11112;51.270;7.224;2023-04-03T01:36:48;9.23;;;4.63;;
21894;SDS011;11112;51.270;7.224;2023-04-03T01:39:15;7.65;;;5.07;;
21894;SDS011;11112;51.270;7.224;2023-04-03T01:41:42;6.30;;;4.53;;
21894;SDS011;11112;51.270;7.224;2023-04-03T01:44:10;7.40;;;4.60;;
21894;SDS011;11112;51.270;7.224;2023-04-03T01:46:37;7.97;;;4.75;;
21894;SDS011;11112;51.270;7.224;2023-04-03T01:49:07;6.63;;;4.57;;
21894;SDS011;11112;51.270;7.224;2023-04-03T01:51:35;7.28;;;4.80;;
21894;SDS011;11112;51.270;7.224;2023-04-03T01:54:03;7.30;;;4.80;;
21894;SDS011;11112;51.270;7.224;2023-04-03T01:56:30;8.55;;;5.07;;
21894;SDS011;11112;51.270;7.224;2023-04-03T01:58:57;9.85;;;5.30;;
21894;SDS011;11112;51.270;7.224;2023-04-03T02:01:24;8.30;;;5.15;;
21894;SDS011;11112;51.270;7.224;2023-04-03T02:03:52;8.23;;;5.50;;
21894;SDS011;11112;51.270;7.224;2023-04-03T02:06:21;7.95;;;5.25;;
21894;SDS011;11112;51.270;7.224;2023-04-03T02:08:48;7.68;;;5.32;;
21894;SDS011;11112;51.270;7.224;2023-04-03T02:11:15;9.38;;;5.68;;
21894;SDS011;11112;51.270;7.224;2023-04-03T02:13:42;9.70;;;5.13;;
21894;SDS011;11112;51.270;7.224;2023-04-03T02:16:09;9.05;;;5.40;;
21894;SDS011;11112;51.270;7.224;2023-04-03T02:18:38;9.60;;;5.47;;
21894;SDS011;11112;51.270;7.224;2023-04-03T02:21:05;7.95;;;4.90;;
21894;SDS011;11112;51.270;7.224;2023-04-03T02:23:34;6.70;;;5.15;;
21894;SDS011;11112;51.270;7.224;2023-04-03T02:26:02;9.10;;;5.40;;
21894;SDS011;11112;51.270;7.224;2023-04-03T02:28:32;8.05;;;5.38;;
21894;SDS011;11112;51.270;7.224;2023-04-03T02:30:59;6.72;;;4.85;;
21894;SDS011;11112;51.270;7.224;2023-04-03T02:33:27;10.20;;;5.15;;
21894;SDS011;11112;51.270;7.224;2023-04-03T02:35:57;8.15;;;5.30;;
21894;SDS011;11112;51.270;7.224;2023-04-03T02:38:25;10.85;;;6.60;;
21894;SDS011;11112;51.270;7.224;2023-04-03T02:40:57;14.63;;;7.68;;
21894;SDS011;11112;51.270;7.224;2023-04-03T02:43:29;11.27;;;8.23;;
21894;SDS011;11112;51.270;7.224;2023-04-03T02:45:57;11.35;;;7.95;;
21894;SDS011;11112;51.270;7.224;2023-04-03T02:48:24;11.15;;;7.45;;
21894;SDS011;11112;51.270;7.224;2023-04-03T02:50:52;12.00;;;7.55;;
21894;SDS011;11112;51.270;7.224;2023-04-03T02:53:19;9.90;;;6.93;;
21894;SDS011;11112;51.270;7.224;2023-04-03T02:55:46;11.52;;;6.88;;
21894;SDS011;11112;51.270;7.224;2023-04-03T02:58:15;13.45;;;6.10;;
21894;SDS011;11112;51.270;7.224;2023-04-03T03:00:44;10.60;;;6.40;;
21894;SDS011;11112;51.270;7.224;2023-04-03T03:03:11;10.57;;;7.07;;
21894;SDS011;11112;51.270;7.224;2023-04-03T03:05:39;10.43;;;6.72;;
21894;SDS011;11112;51.270;7.224;2023-04-03T03:08:06;10.70;;;6.50;;
21894;SDS011;11112;51.270;7.224;2023-04-03T03:10:34;10.50;;;6.72;;
21894;SDS011;11112;51.270;7.224;2023-04-03T03:13:01;9.60;;;6.68;;
21894;SDS011;11112;51.270;7.224;2023-04-03T03:15:29;10.32;;;6.20;;
21894;SDS011;11112;51.270;7.224;2023-04-03T03:17:56;10.02;;;5.63;;
21894;SDS011;11112;51.270;7.224;2023-04-03T03:20:26;10.35;;;6.10;;
21894;SDS011;11112;51.270;7.224;2023-04-03T03:22:53;11.45;;;6.00;;
21894;SDS011;11112;51.270;7.224;2023-04-03T03:25:20;10.18;;;5.75;;
21894;SDS011;11112;51.270;7.224;2023-04-03T03:27:48;9.05;;;5.65;;
21894;SDS011;11112;51.270;7.224;2023-04-03T03:30:15;9.85;;;5.70;;
21894;SDS011;11112;51.270;7.224;2023-04-03T03:32:44;11.27;;;5.90;;
21894;SDS011;11112;51.270;7.224;2023-04-03T03:35:11;11.10;;;6.15;;
21894;SDS011;11112;51.270;7.224;2023-04-03T03:37:39;9.77;;;5.90;;
21894;SDS011;11112;51.270;7.224;2023-04-03T03:40:06;9.52;;;5.88;;
21894;SDS011;11112;51.270;7.224;2023-04-03T03:42:36;10.30;;;6.22;;
21894;SDS011;11112;51.270;7.224;2023-04-03T03:45:03;11.18;;;6.22;;
21894;SDS011;11112;51.270;7.224;2023-04-03T03:47:32;13.65;;;6.57;;
21894;SDS011;11112;51.270;7.224;2023-04-03T03:50:03;11.13;;;7.10;;
21894;SDS011;11112;51.270;7.224;2023-04-03T03:52:32;12.55;;;6.65;;
21894;SDS011;11112;51.270;7.224;2023-04-03T03:55:00;11.18;;;6.90;;
21894;SDS011;11112;51.270;7.224;2023-04-03T03:57:27;11.05;;;6.15;;
21894;SDS011;11112;51.270;7.224;2023-04-03T03:59:54;10.52;;;6.00;;
21894;SDS011;11112;51.270;7.224;2023-04-03T04:02:22;10.85;;;6.35;;
21894;SDS011;11112;51.270;7.224;2023-04-03T04:04:49;9.77;;;6.10;;
21894;SDS011;11112;51.270;7.224;2023-04-03T04:07:18;11.13;;;5.97;;
21894;SDS011;11112;51.270;7.224;2023-04-03T04:09:45;8.95;;;6.00;;
21894;SDS011;11112;51.270;7.224;2023-04-03T04:12:12;11.90;;;5.85;;
21894;SDS011;11112;51.270;7.224;2023-04-03T04:14:39;9.20;;;6.28;;
21894;SDS011;11112;51.270;7.224;2023-04-03T04:17:06;10.50;;;6.70;;
21894;SDS011;11112;51.270;7.224;2023-04-03T04:19:33;10.35;;;6.57;;
21894;SDS011;11112;51.270;7.224;2023-04-03T04:22:00;11.05;;;6.38;;
21894;SDS011;11112;51.270;7.224;2023-04-03T04:24:32;12.70;;;6.82;;
21894;SDS011;11112;51.270;7.224;2023-04-03T04:26:59;11.52;;;6.82;;
21894;SDS011;11112;51.270;7.224;2023-04-03T04:29:29;13.23;;;6.35;;
21894;SDS011;11112;51.270;7.224;2023-04-03T04:32:01;11.55;;;6.28;;
21894;SDS011;11112;51.270;7.224;2023-04-03T04:34:28;9.45;;;5.82;;
21894;SDS011;11112;51.270;7.224;2023-04-03T04:36:57;10.23;;;5.55;;
21894;SDS011;11112;51.270;7.224;2023-04-03T04:39:24;12.00;;;5.93;;
21894;SDS011;11112;51.270;7.224;2023-04-03T04:41:53;9.80;;;6.10;;
21894;SDS011;11112;51.270;7.224;2023-04-03T04:44:20;10.50;;;5.50;;
21894;SDS011;11112;51.270;7.224;2023-04-03T04:46:48;8.80;;;5.35;;
21894;SDS011;11112;51.270;7.224;2023-04-03T04:49:15;10.30;;;5.45;;
21894;SDS011;11112;51.270;7.224;2023-04-03T04:51:42;10.77;;;5.50;;
21894;SDS011;11112;51.270;7.224;2023-04-03T04:54:09;9.88;;;5.63;;
21894;SDS011;11112;51.270;7.224;2023-04-03T04:56:37;12.13;;;5.88;;
21894;SDS011;11112;51.270;7.224;2023-04-03T04:59:05;12.02;;;6.32;;
21894;SDS011;11112;51.270;7.224;2023-04-03T05:01:33;13.98;;;6.50;;
21894;SDS011;11112;51.270;7.224;2023-04-03T05:04:00;11.70;;;5.75;;
21894;SDS011;11112;51.270;7.224;2023-04-03T05:06:28;11.80;;;5.82;;
21894;SDS011;11112;51.270;7.224;2023-04-03T05:08:56;9.43;;;5.45;;
21894;SDS011;11112;51.270;7.224;2023-04-03T05:11:27;14.73;;;6.10;;
21894;SDS011;11112;51.270;7.224;2023-04-03T05:13:54;11.70;;;5.60;;
21894;SDS011;11112;51.270;7.224;2023-04-03T05:16:22;11.93;;;5.70;;
21894;SDS011;11112;51.270;7.224;2023-04-03T05:18:50;10.82;;;5.35;;
21894;SDS011;11112;51.270;7.224;2023-04-03T05:21:17;14.15;;;6.40;;
21894;SDS011;11112;51.270;7.224;2023-04-03T05:23:46;13.25;;;5.32;;
21894;SDS011;11112;51.270;7.224;2023-04-03T05:26:13;12.45;;;5.57;;
21894;SDS011;11112;51.270;7.224;2023-04-03T05:28:40;11.05;;;5.95;;
21894;SDS011;11112;51.270;7.224;2023-04-03T05:31:08;19.45;;;6.10;;
21894;SDS011;11112;51.270;7.224;2023-04-03T05:33:36;13.23;;;5.75;;
21894;SDS011;11112;51.270;7.224;2023-04-03T05:36:04;11.23;;;5.57;;
21894;SDS011;11112;51.270;7.224;2023-04-03T05:38:32;12.25;;;5.68;;
21894;SDS011;11112;51.270;7.224;2023-04-03T05:40:59;12.98;;;6.00;;
21894;SDS011;11112;51.270;7.224;2023-04-03T05:43:26;11.15;;;5.28;;
21894;SDS011;11112;51.270;7.224;2023-04-03T05:45:54;14.10;;;5.47;;
21894;SDS011;11112;51.270;7.224;2023-04-03T05:48:21;11.60;;;5.00;;
21894;SDS011;11112;51.270;7.224;2023-04-03T05:50:49;9.00;;;4.60;;
21894;SDS011;11112;51.270;7.224;2023-04-03T05:53:18;9.73;;;4.50;;
21894;SDS011;11112;51.270;7.224;2023-04-03T05:55:50;10.90;;;4.78;;
21894;SDS011;11112;51.270;7.224;2023-04-03T05:58:17;9.52;;;4.03;;
21894;SDS011;11112;51.270;7.224;2023-04-03T06:00:44;11.20;;;4.13;;
21894;SDS011;11112;51.270;7.224;2023-04-03T06:03:16;11.20;;;4.20;;
21894;SDS011;11112;51.270;7.224;2023-04-03T06:05:43;10.20;;;4.25;;
21894;SDS011;11112;51.270;7.224;2023-04-03T06:08:15;11.30;;;4.00;;
21894;SDS011;11112;51.270;7.224;2023-04-03T06:10:42;10.63;;;4.18;;
21894;SDS011;11112;51.270;7.224;2023-04-03T06:13:09;9.43;;;3.92;;
21894;SDS011;11112;51.270;7.224;2023-04-03T06:15:37;9.65;;;4.00;;
21894;SDS011;11112;51.270;7.224;2023-04-03T06:18:04;11.27;;;4.38;;
21894;SDS011;11112;51.270;7.224;2023-04-03T06:20:32;8.55;;;3.88;;
21894;SDS011;11112;51.270;7.224;2023-04-03T06:22:59;10.27;;;3.72;;
21894;SDS011;11112;51.270;7.224;2023-04-03T06:25:27;8.43;;;3.67;;
21894;SDS011;11112;51.270;7.224;2023-04-03T06:27:54;9.88;;;4.13;;
21894;SDS011;11112;51.270;7.224;2023-04-03T06:30:21;8.65;;;3.42;;
21894;SDS011;11112;51.270;7.224;2023-04-03T06:32:48;8.32;;;3.58;;
21894;SDS011;11112;51.270;7.224;2023-04-03T06:35:16;11.48;;;4.10;;
21894;SDS011;11112;51.270;7.224;2023-04-03T06:37:43;9.27;;;3.80;;
21894;SDS011;11112;51.270;7.224;2023-04-03T06:40:11;11.80;;;4.38;;
21894;SDS011;11112;51.270;7.224;2023-04-03T06:42:50;12.35;;;4.65;;
21894;SDS011;11112;51.270;7.224;2023-04-03T06:45:17;11.23;;;4.30;;
21894;SDS011;11112;51.270;7.224;2023-04-03T06:47:44;10.63;;;4.15;;
21894;SDS011;11112;51.270;7.224;2023-04-03T06:50:11;14.23;;;4.03;;
21894;SDS011;11112;51.270;7.224;2023-04-03T06:52:39;10.63;;;3.70;;
21894;SDS011;11112;51.270;7.224;2023-04-03T06:55:07;11.48;;;4.40;;
21894;SDS011;11112;51.270;7.224;2023-04-03T06:57:35;11.10;;;3.80;;
21894;SDS011;11112;51.270;7.224;2023-04-03T07:00:04;12.27;;;3.80;;
21894;SDS011;11112;51.270;7.224;2023-04-03T07:02:34;11.10;;;3.72;;
21894;SDS011;11112;51.270;7.224;2023-04-03T07:05:01;9.65;;;3.97;;
21894;SDS011;11112;51.270;7.224;2023-04-03T07:07:29;9.60;;;3.63;;
21894;SDS011;11112;51.270;7.224;2023-04-03T07:12:24;10.65;;;3.40;;
21894;SDS011;11112;51.270;7.224;2023-04-03T07:14:51;11.55;;;3.85;;
21894;SDS011;11112;51.270;7.224;2023-04-03T07:17:19;12.20;;;4.20;;
21894;SDS011;11112;51.270;7.224;2023-04-03T07:19:47;9.38;;;3.80;;
21894;SDS011;11112;51.270;7.224;2023-04-03T07:22:14;11.95;;;3.55;;
21894;SDS011;11112;51.270;7.224;2023-04-03T07:24:41;8.40;;;2.97;;
21894;SDS011;11112;51.270;7.224;2023-04-03T07:27:10;9.38;;;3.17;;
21894;SDS011;11112;51.270;7.224;2023-04-03T07:29:38;11.77;;;3.20;;
21894;SDS011;11112;51.270;7.224;2023-04-03T07:32:05;9.70;;;3.00;;
21894;SDS011;11112;51.270;7.224;2023-04-03T07:34:34;8.60;;;2.95;;
21894;SDS011;11112;51.270;7.224;2023-04-03T07:37:01;7.97;;;2.63;;
21894;SDS011;11112;51.270;7.224;2023-04-03T07:39:30;12.38;;;2.75;;
21894;SDS011;11112;51.270;7.224;2023-04-03T07:41:57;8.20;;;2.90;;
21894;SDS011;11112;51.270;7.224;2023-04-03T07:44:25;8.63;;;2.90;;
21894;SDS011;11112;51.270;7.224;2023-04-03T07:46:52;8.43;;;3.10;;
21894;SDS011;11112;51.270;7.224;2023-04-03T07:49:20;9.05;;;2.92;;
21894;SDS011;11112;51.270;7.224;2023-04-03T07:51:49;9.07;;;2.65;;
21894;SDS011;11112;51.270;7.224;2023-04-03T07:54:16;8.18;;;2.75;;
21894;SDS011;11112;51.270;7.224;2023-04-03T07:56:43;6.78;;;2.70;;
21894;SDS011;11112;51.270;7.224;2023-04-03T07:59:13;7.43;;;2.58;;
21894;SDS011;11112;51.270;7.224;2023-04-03T08:01:41;9.82;;;2.97;;
21894;SDS011;11112;51.270;7.224;2023-04-03T08:04:08;10.07;;;3.30;;
21894;SDS011;11112;51.270;7.224;2023-04-03T08:06:35;6.78;;;2.92;;
21894;SDS011;11112;51.270;7.224;2023-04-03T08:09:04;7.80;;;2.67;;
21894;SDS011;11112;51.270;7.224;2023-04-03T08:11:31;10.75;;;3.08;;
21894;SDS011;11112;51.270;7.224;2023-04-03T08:13:58;11.52;;;2.40;;
21894;SDS011;11112;51.270;7.224;2023-04-03T08:16:27;9.80;;;2.67;;
21894;SDS011;11112;51.270;7.224;2023-04-03T08:18:54;6.63;;;2.10;;
21894;SDS011;11112;51.270;7.224;2023-04-03T08:21:21;6.60;;;2.47;;
21894;SDS011;11112;51.270;7.224;2023-04-03T08:23:48;7.20;;;2.25;;
21894;SDS011;11112;51.270;7.224;2023-04-03T08:26:18;5.72;;;2.30;;
21894;SDS011;11112;51.270;7.224;2023-04-03T08:28:47;10.88;;;2.47;;
21894;SDS011;11112;51.270;7.224;2023-04-03T08:31:16;7.95;;;2.42;;
21894;SDS011;11112;51.270;7.224;2023-04-03T08:33:47;7.00;;;2.13;;
21894;SDS011;11112;51.270;7.224;2023-04-03T08:36:16;6.22;;;1.75;;
21894;SDS011;11112;51.270;7.224;2023-04-03T08:38:45;6.75;;;2.00;;
21894;SDS011;11112;51.270;7.224;2023-04-03T08:41:14;6.60;;;2.20;;
21894;SDS011;11112;51.270;7.224;2023-04-03T08:44:00;10.45;;;2.05;;
21894;SDS011;11112;51.270;7.224;2023-04-03T08:46:40;7.20;;;2.20;;
21894;SDS011;11112;51.270;7.224;2023-04-03T08:49:21;5.72;;;2.05;;
21894;SDS011;11112;51.270;7.224;2023-04-03T08:51:53;7.72;;;1.90;;
21894;SDS011;11112;51.270;7.224;2023-04-03T08:54:28;6.03;;;1.90;;
21894;SDS011;11112;51.270;7.224;2023-04-03T08:56:59;6.25;;;1.88;;
21894;SDS011;11112;51.270;7.224;2023-04-03T08:59:32;6.77;;;2.30;;
21894;SDS011;11112;51.270;7.224;2023-04-03T09:02:03;7.28;;;2.53;;
21894;SDS011;11112;51.270;7.224;2023-04-03T09:04:48;7.68;;;1.98;;
21894;SDS011;11112;51.270;7.224;2023-04-03T09:07:18;7.75;;;2.00;;
21894;SDS011;11112;51.270;7.224;2023-04-03T09:09:54;5.55;;;1.77;;
21894;SDS011;11112;51.270;7.224;2023-04-03T09:12:27;6.57;;;1.83;;
21894;SDS011;11112;51.270;7.224;2023-04-03T09:15:02;6.22;;;1.90;;
21894;SDS011;11112;51.270;7.224;2023-04-03T09:17:40;7.07;;;1.98;;
21894;SDS011;11112;51.270;7.224;2023-04-03T09:20:19;6.90;;;2.20;;
21894;SDS011;11112;51.270;7.224;2023-04-03T09:22:51;6.10;;;2.00;;
21894;SDS011;11112;51.270;7.224;2023-04-03T09:25:20;5.80;;;1.52;;
21894;SDS011;11112;51.270;7.224;2023-04-03T09:27:51;6.00;;;2.40;;
21894;SDS011;11112;51.270;7.224;2023-04-03T09:30:19;10.00;;;2.08;;
21894;SDS011;11112;51.270;7.224;2023-04-03T09:32:49;6.40;;;2.00;;
21894;SDS011;11112;51.270;7.224;2023-04-03T09:35:23;6.32;;;1.90;;
21894;SDS011;11112;51.270;7.224;2023-04-03T09:37:53;6.45;;;2.20;;
21894;SDS011;11112;51.270;7.224;2023-04-03T09:40:29;5.82;;;2.00;;
21894;SDS011;11112;51.270;7.224;2023-04-03T09:45:50;5.97;;;1.60;;
21894;SDS011;11112;51.270;7.224;2023-04-03T09:48:18;5.30;;;2.00;;
21894;SDS011;11112;51.270;7.224;2023-04-03T09:50:55;5.75;;;1.75;;
21894;SDS011;11112;51.270;7.224;2023-04-03T09:53:32;6.93;;;1.70;;
21894;SDS011;11112;51.270;7.224;2023-04-03T09:56:03;6.63;;;1.30;;
21894;SDS011;11112;51.270;7.224;2023-04-03T09:58:48;4.85;;;1.50;;
21894;SDS011;11112;51.270;7.224;2023-04-03T10:01:22;5.07;;;1.35;;
21894;SDS011;11112;51.270;7.224;2023-04-03T10:04:08;3.05;;;0.98;;
21894;SDS011;11112;51.270;7.224;2023-04-03T10:06:38;3.72;;;1.30;;
21894;SDS011;11112;51.270;7.224;2023-04-03T10:09:15;3.88;;;0.98;;
21894;SDS011;11112;51.270;7.224;2023-04-03T10:14:37;1.67;;;0.70;;
21894;SDS011;11112;51.270;7.224;2023-04-03T10:17:11;4.68;;;0.80;;
21894;SDS011;11112;51.270;7.224;2023-04-03T10:19:46;2.72;;;0.40;;
21894;SDS011;11112;51.270;7.224;2023-04-03T10:22:19;1.95;;;0.50;;
21894;SDS011;11112;51.270;7.224;2023-04-03T10:24:56;2.22;;;0.63;;
21894;SDS011;11112;51.270;7.224;2023-04-03T10:27:42;4.18;;;0.60;;
21894;SDS011;11112;51.270;7.224;2023-04-03T10:30:21;1.75;;;0.47;;
21894;SDS011;11112;51.270;7.224;2023-04-03T10:33:03;2.40;;;0.60;;
21894;SDS011;11112;51.270;7.224;2023-04-03T10:36:07;2.70;;;0.70;;
21894;SDS011;11112;51.270;7.224;2023-04-03T10:38:48;2.53;;;0.75;;
21894;SDS011;11112;51.270;7.224;2023-04-03T10:41:27;1.85;;;0.50;;
21894;SDS011;11112;51.270;7.224;2023-04-03T10:44:07;1.58;;;0.50;;
21894;SDS011;11112;51.270;7.224;2023-04-03T10:46:44;2.10;;;0.55;;
21894;SDS011;11112;51.270;7.224;2023-04-03T10:49:22;2.10;;;0.60;;
21894;SDS011;11112;51.270;7.224;2023-04-03T10:52:02;1.88;;;0.57;;
21894;SDS011;11112;51.270;7.224;2023-04-03T10:54:38;4.35;;;0.70;;
21894;SDS011;11112;51.270;7.224;2023-04-03T10:57:10;3.33;;;0.80;;
21894;SDS011;11112;51.270;7.224;2023-04-03T10:59:38;4.72;;;1.10;;
21894;SDS011;11112;51.270;7.224;2023-04-03T11:02:13;3.10;;;0.80;;
21894;SDS011;11112;51.270;7.224;2023-04-03T11:04:48;4.90;;;0.80;;
21894;SDS011;11112;51.270;7.224;2023-04-03T11:07:20;3.65;;;0.90;;
21894;SDS011;11112;51.270;7.224;2023-04-03T11:09:52;5.07;;;0.85;;
21894;SDS011;11112;51.270;7.224;2023-04-03T11:12:24;2.92;;;0.85;;
21894;SDS011;11112;51.270;7.224;2023-04-03T11:14:59;2.22;;;0.60;;
21894;SDS011;11112;51.270;7.224;2023-04-03T11:17:33;3.67;;;0.80;;
21894;SDS011;11112;51.270;7.224;2023-04-03T11:20:10;4.93;;;1.08;;
21894;SDS011;11112;51.270;7.224;2023-04-03T11:22:44;3.35;;;0.98;;
21894;SDS011;11112;51.270;7.224;2023-04-03T11:25:25;4.30;;;1.38;;
21894;SDS011;11112;51.270;7.224;2023-04-03T11:27:54;3.33;;;0.90;;
21894;SDS011;11112;51.270;7.224;2023-04-03T11:30:25;5.18;;;0.70;;
21894;SDS011;11112;51.270;7.224;2023-04-03T11:33:03;3.50;;;0.77;;
21894;SDS011;11112;51.270;7.224;2023-04-03T11:35:52;1.85;;;0.65;;
21894;SDS011;11112;51.270;7.224;2023-04-03T11:38:23;2.63;;;0.70;;
21894;SDS011;11112;51.270;7.224;2023-04-03T11:40:54;2.45;;;0.60;;
21894;SDS011;11112;51.270;7.224;2023-04-03T11:43:24;4.47;;;0.93;;
21894;SDS011;11112;51.270;7.224;2023-04-03T11:45:55;6.38;;;1.00;;
21894;SDS011;11112;51.270;7.224;2023-04-03T11:57:22;5.22;;;1.00;;
21894;SDS011;11112;51.270;7.224;2023-04-03T12:03:33;3.60;;;0.80;;
21894;SDS011;11112;51.270;7.224;2023-04-03T12:09:31;4.05;;;1.10;;
21894;SDS011;11112;51.270;7.224;2023-04-03T12:12:28;2.65;;;0.90;;
21894;SDS011;11112;51.270;7.224;2023-04-03T12:21:11;3.30;;;0.80;;
21894;SDS011;11112;51.270;7.224;2023-04-03T12:24:00;3.05;;;0.80;;
21894;SDS011;11112;51.270;7.224;2023-04-03T12:26:36;3.88;;;0.98;;
21894;SDS011;11112;51.270;7.224;2023-04-03T12:29:12;2.78;;;0.93;;
21894;SDS011;11112;51.270;7.224;2023-04-03T12:31:46;7.43;;;1.10;;
21894;SDS011;11112;51.270;7.224;2023-04-03T12:34:28;5.38;;;1.17;;
21894;SDS011;11112;51.270;7.224;2023-04-03T12:37:37;5.07;;;1.00;;
21894;SDS011;11112;51.270;7.224;2023-04-03T12:40:22;4.03;;;0.93;;
21894;SDS011;11112;51.270;7.224;2023-04-03T12:43:02;2.53;;;1.10;;
21894;SDS011;11112;51.270;7.224;2023-04-03T12:46:01;2.60;;;0.95;;
21894;SDS011;11112;51.270;7.224;2023-04-03T12:48:37;4.57;;;1.20;;
21894;SDS011;11112;51.270;7.224;2023-04-03T12:51:13;2.47;;;0.93;;
21894;SDS011;11112;51.270;7.224;2023-04-03T12:53:44;3.63;;;1.05;;
21894;SDS011;11112;51.270;7.224;2023-04-03T12:56:20;3.50;;;1.05;;
21894;SDS011;11112;51.270;7.224;2023-04-03T12:58:50;4.78;;;1.00;;
21894;SDS011;11112;51.270;7.224;2023-04-03T13:01:20;5.05;;;1.05;;
21894;SDS011;11112;51.270;7.224;2023-04-03T13:03:50;3.47;;;0.93;;
21894;SDS011;11112;51.270;7.224;2023-04-03T13:06:21;6.32;;;1.38;;
21894;SDS011;11112;51.270;7.224;2023-04-03T13:08:52;2.78;;;0.90;;
21894;SDS011;11112;51.270;7.224;2023-04-03T13:11:24;4.57;;;1.25;;
21894;SDS011;11112;51.270;7.224;2023-04-03T13:13:57;3.17;;;1.08;;
21894;SDS011;11112;51.270;7.224;2023-04-03T13:16:27;5.78;;;1.10;;
21894;SDS011;11112;51.270;7.224;2023-04-03T13:18:54;5.05;;;1.30;;
21894;SDS011;11112;51.270;7.224;2023-04-03T13:21:24;4.60;;;1.30;;
21894;SDS011;11112;51.270;7.224;2023-04-03T13:23:57;4.47;;;1.30;;
21894;SDS011;11112;51.270;7.224;2023-04-03T13:28:59;3.13;;;1.20;;
21894;SDS011;11112;51.270;7.224;2023-04-03T13:31:31;3.35;;;1.05;;
21894;SDS011;11112;51.270;7.224;2023-04-03T13:34:02;4.90;;;1.05;;
21894;SDS011;11112;51.270;7.224;2023-04-03T13:36:36;3.33;;;1.00;;
21894;SDS011;11112;51.270;7.224;2023-04-03T13:39:19;4.70;;;1.08;;
21894;SDS011;11112;51.270;7.224;2023-04-03T13:41:52;6.03;;;1.20;;
21894;SDS011;11112;51.270;7.224;2023-04-03T13:44:26;3.55;;;0.98;;
21894;SDS011;11112;51.270;7.224;2023-04-03T13:46:58;4.43;;;1.10;;
21894;SDS011;11112;51.270;7.224;2023-04-03T13:49:40;3.17;;;1.10;;
21894;SDS011;11112;51.270;7.224;2023-04-03T13:52:22;4.95;;;1.02;;
21894;SDS011;11112;51.270;7.224;2023-04-03T13:54:52;5.93;;;1.23;;
21894;SDS011;11112;51.270;7.224;2023-04-03T13:57:24;4.90;;;1.02;;
21894;SDS011;11112;51.270;7.224;2023-04-03T13:59:52;5.05;;;1.10;;
21894;SDS011;11112;51.270;7.224;2023-04-03T14:02:21;5.50;;;1.35;;
21894;SDS011;11112;51.270;7.224;2023-04-03T14:04:57;5.13;;;1.23;;
21894;SDS011;11112;51.270;7.224;2023-04-03T14:07:27;4.30;;;1.23;;
21894;SDS011;11112;51.270;7.224;2023-04-03T14:09:55;5.90;;;1.23;;
21894;SDS011;11112;51.270;7.224;2023-04-03T14:12:26;4.85;;;1.35;;
21894;SDS011;11112;51.270;7.224;2023-04-03T14:14:55;3.78;;;1.33;;
21894;SDS011;11112;51.270;7.224;2023-04-03T14:17:24;4.53;;;1.20;;
21894;SDS011;11112;51.270;7.224;2023-04-03T14:19:52;7.70;;;1.10;;
21894;SDS011;11112;51.270;7.224;2023-04-03T14:22:22;7.18;;;1.33;;
21894;SDS011;11112;51.270;7.224;2023-04-03T14:24:53;3.05;;;1.00;;
21894;SDS011;11112;51.270;7.224;2023-04-03T14:27:21;4.65;;;1.15;;
21894;SDS011;11112;51.270;7.224;2023-04-03T14:29:54;3.55;;;1.20;;
21894;SDS011;11112;51.270;7.224;2023-04-03T14:32:28;6.38;;;1.52;;
21894;SDS011;11112;51.270;7.224;2023-04-03T14:34:55;2.42;;;0.82;;
21894;SDS011;11112;51.270;7.224;2023-04-03T14:37:24;5.55;;;1.30;;
21894;SDS011;11112;51.270;7.224;2023-04-03T14:39:56;6.38;;;1.25;;
21894;SDS011;11112;51.270;7.224;2023-04-03T14:42:26;5.78;;;1.40;;
21894;SDS011;11112;51.270;7.224;2023-04-03T14:44:58;5.10;;;1.23;;
21894;SDS011;11112;51.270;7.224;2023-04-03T14:47:28;4.80;;;1.30;;
21894;SDS011;11112;51.270;7.224;2023-04-03T14:49:56;4.63;;;1.40;;
21894;SDS011;11112;51.270;7.224;2023-04-03T14:52:24;5.47;;;1.10;;
21894;SDS011;11112;51.270;7.224;2023-04-03T14:54:54;4.38;;;1.23;;
21894;SDS011;11112;51.270;7.224;2023-04-03T14:57:23;3.92;;;1.33;;
21894;SDS011;11112;51.270;7.224;2023-04-03T14:59:52;5.22;;;1.20;;
21894;SDS011;11112;51.270;7.224;2023-04-03T15:02:26;5.15;;;1.50;;
21894;SDS011;11112;51.270;7.224;2023-04-03T15:04:56;6.72;;;1.27;;
21894;SDS011;11112;51.270;7.224;2023-04-03T15:07:25;5.80;;;1.30;;
21894;SDS011;11112;51.270;7.224;2023-04-03T15:09:56;3.47;;;1.33;;
21894;SDS011;11112;51.270;7.224;2023-04-03T15:12:23;4.28;;;1.20;;
21894;SDS011;11112;51.270;7.224;2023-04-03T15:14:51;4.65;;;1.20;;
21894;SDS011;11112;51.270;7.224;2023-04-03T15:17:19;4.85;;;1.40;;
21894;SDS011;11112;51.270;7.224;2023-04-03T15:19:53;14.20;;;1.35;;
21894;SDS011;11112;51.270;7.224;2023-04-03T15:22:20;3.90;;;1.15;;
21894;SDS011;11112;51.270;7.224;2023-04-03T15:24:48;3.80;;;1.23;;
21894;SDS011;11112;51.270;7.224;2023-04-03T15:27:15;4.78;;;1.38;;
21894;SDS011;11112;51.270;7.224;2023-04-03T15:29:43;4.18;;;1.30;;
21894;SDS011;11112;51.270;7.224;2023-04-03T15:32:12;4.07;;;1.35;;
21894;SDS011;11112;51.270;7.224;2023-04-03T15:34:39;3.35;;;1.20;;
21894;SDS011;11112;51.270;7.224;2023-04-03T15:37:08;5.45;;;1.08;;